»·PEaware :: SWA4006 KSAN-KLAS

SWA4006 :: KSAN-KLAS

FLIGHT INFORMATION

Flight Status: Arrived
Operator:
Southwest Airlines
More flights by this operator :: More flights under this callsign
Pilot: Alfredo R. (12181)
Aircraft: BOEING 737-800
(B738)
More flights by this aircraft type
Origin: KSAN San Diego Intl-Lindbergh
United States
Destination: KLAS McCarran Intl
United States
More flights between these airports :: More routes between these airports
Route: +PADRZ2 CHKNN SEBBY YELAH MISEN KEPEC6
File this flight plan on PilotEdge
Remarks:
Altitude:
(Current/Filed)
29,000ft
Speed:
(Current/Filed)
225kts
Departed: 07-Apr-19 07:53 PM
Arrived: 07-Apr-19 08:47 PM
Distance/Time
Traveled:
225nm/0:53
Distance/Time
To Go:
Arrived

Flight Plot

Page will automatically refresh every two minutes.

Flight plan parsing failed; only flown route is shown


Map Options




Map Legend


Flown Route
Filed Route
Departure Airport
Arrival Airport
Navaid (VOR, NDB)
Fix

Horizontal Profiles

Position Reports

Time Latitude Longitude Heading Altitude Ground
Speed
07-Apr-19 19:32 32.733140 -117.195667 226 19ft 0kts
07-Apr-19 19:33 32.733140 -117.195667 226 19ft 0kts
07-Apr-19 19:33 32.733140 -117.195667 226 19ft 0kts
07-Apr-19 19:34 32.733140 -117.195667 226 19ft 0kts
07-Apr-19 19:36 32.733140 -117.195667 226 19ft 0kts
07-Apr-19 19:36 32.733140 -117.195666 226 19ft 0kts
07-Apr-19 19:37 32.733140 -117.195666 226 19ft 0kts
07-Apr-19 19:38 32.733303 -117.195466 225 20ft 2kts
07-Apr-19 19:39 32.733777 -117.195412 133 20ft 2kts
07-Apr-19 19:40 32.733919 -117.195882 106 19ft 0kts
07-Apr-19 19:41 32.733919 -117.195882 106 19ft 0kts
07-Apr-19 19:42 32.733919 -117.195882 106 19ft 0kts
07-Apr-19 19:43 32.733919 -117.195882 106 19ft 0kts
07-Apr-19 19:44 32.733878 -117.195666 101 19ft 3kts
07-Apr-19 19:45 32.733461 -117.193534 106 21ft 12kts
07-Apr-19 19:46 32.732461 -117.189380 105 19ft 16kts
07-Apr-19 19:47 32.731171 -117.184065 105 17ft 16kts
07-Apr-19 19:48 32.730022 -117.179342 106 19ft 15kts
07-Apr-19 19:49 32.729521 -117.176716 76 22ft 0kts
07-Apr-19 19:50 32.729522 -117.176710 76 22ft 0kts
07-Apr-19 19:51 32.730397 -117.176631 287 24ft 13kts
07-Apr-19 19:52 32.736726 -117.200610 281 158ft 143kts
07-Apr-19 19:53 32.775231 -117.271611 302 2456ft 204kts
07-Apr-19 19:54 32.823234 -117.374577 312 1783ft 267kts
07-Apr-19 19:55 32.891633 -117.462431 309 2981ft 287kts
07-Apr-19 19:56 32.951198 -117.554556 309 5782ft 267kts
07-Apr-19 19:57 33.022507 -117.665602 308 10632ft 287kts
07-Apr-19 19:58 33.079711 -117.748025 319 14192ft 293kts
07-Apr-19 19:59 33.169798 -117.837934 318 18141ft 312kts
07-Apr-19 20:00 33.254125 -117.921283 319 21303ft 325kts
07-Apr-19 20:01 33.348900 -118.013674 319 23191ft 330kts
07-Apr-19 20:02 33.441480 -118.096941 336 23200ft 335kts
07-Apr-19 20:03 33.548117 -118.080625 31 24204ft 368kts
07-Apr-19 20:04 33.630313 -117.996244 36 26467ft 376kts
07-Apr-19 20:05 33.720275 -117.901158 35 28499ft 386kts
07-Apr-19 20:06 33.814536 -117.801214 35 29127ft 392kts
07-Apr-19 20:07 33.908578 -117.701113 35 29162ft 390kts
07-Apr-19 20:08 34.004687 -117.598582 35 29164ft 389kts
07-Apr-19 20:09 34.101094 -117.495403 35 29152ft 389kts
07-Apr-19 20:10 34.210540 -117.377839 35 29173ft 390kts
07-Apr-19 20:11 34.332784 -117.246059 35 29171ft 392kts
07-Apr-19 20:12 34.430498 -117.140305 35 29238ft 389kts
07-Apr-19 20:13 34.533678 -117.028285 35 29241ft 390kts
07-Apr-19 20:14 34.632800 -116.920356 35 29193ft 390kts
07-Apr-19 20:15 34.718787 -116.826391 35 29195ft 390kts
07-Apr-19 20:16 34.800978 -116.736304 35 29153ft 391kts
07-Apr-19 20:17 34.889369 -116.639129 36 27537ft 392kts
07-Apr-19 20:18 34.977330 -116.542298 37 26009ft 415kts
07-Apr-19 20:19 35.060337 -116.450406 37 24542ft 408kts
07-Apr-19 20:20 35.141746 -116.355706 41 23064ft 402kts
07-Apr-19 20:21 35.218308 -116.259267 41 21566ft 393kts
07-Apr-19 20:22 35.293157 -116.165004 41 20061ft 382kts
07-Apr-19 20:23 35.365971 -116.073144 41 18736ft 374kts
07-Apr-19 20:24 35.437777 -115.982345 41 17533ft 367kts
07-Apr-19 20:25 35.508216 -115.893052 42 16332ft 361kts
07-Apr-19 20:26 35.573302 -115.810283 42 15177ft 341kts
07-Apr-19 20:27 35.636640 -115.729518 42 13970ft 318kts
07-Apr-19 20:28 35.696411 -115.653157 42 13054ft 305kts
07-Apr-19 20:29 35.760080 -115.584127 18 13052ft 300kts
07-Apr-19 20:30 35.841959 -115.571348 359 13046ft 296kts
07-Apr-19 20:31 35.922261 -115.566400 3 13038ft 285kts
07-Apr-19 20:32 35.984329 -115.513751 55 12220ft 285kts
07-Apr-19 20:33 36.015534 -115.423365 66 11326ft 283kts
07-Apr-19 20:34 36.028521 -115.330111 94 10445ft 277kts
07-Apr-19 20:35 36.021785 -115.238708 94 9533ft 262kts
07-Apr-19 20:36 36.014758 -115.151270 94 8593ft 251kts
07-Apr-19 20:37 36.007994 -115.066055 94 7679ft 244kts
07-Apr-19 20:38 36.002561 -114.984501 94 6762ft 231kts
07-Apr-19 20:39 35.998534 -114.907267 94 5860ft 221kts
07-Apr-19 20:40 36.035453 -114.872841 326 5087ft 205kts
07-Apr-19 20:41 36.069227 -114.927058 303 4330ft 194kts
07-Apr-19 20:42 36.074259 -114.989032 272 3703ft 174kts
07-Apr-19 20:43 36.073079 -115.048190 271 3008ft 168kts
07-Apr-19 20:44 36.073542 -115.101761 272 2463ft 149kts
07-Apr-19 20:45 36.073664 -115.145755 270 2103ft 42kts
07-Apr-19 20:46 36.075350 -115.151316 330 2122ft 0kts
07-Apr-19 20:47 36.076408 -115.151981 334 2122ft 15kts
07-Apr-19 20:48 36.078370 -115.147931 50 2103ft 14kts
07-Apr-19 20:49 36.079612 -115.146682 30 2096ft 1kts
07-Apr-19 20:50 36.079627 -115.146671 30 2096ft 0kts
07-Apr-19 20:51 36.079627 -115.146671 30 2096ft 0kts

Navigation Log

Ident Type
Flight plan parsing failed, navigation log unavailable